Time;durP1;ratioP1;P1;durP2;ratioP2;P2;SDS_P1;SDS_P2;PMS_P1;PMS_P2;Temp;Humidity;BMP_temperature;BMP_pressure;BME280_temperature;BME280_humidity;BME280_pressure;Samples;Min_cycle;Max_cycle;Signal;HPM_P1;HPM_P2
2023/10/02 00:03:29;;;;;;;5.63;2.90;;;10.90;99.90;;;;;;5060908;28;20040;-38
2023/10/02 00:05:55;;;;;;;5.32;3.28;;;10.90;99.90;;;;;;5065678;28;20032;-39
2023/10/02 00:08:54;;;;;;;6.68;3.17;;;10.90;99.90;;;;;;5054583;28;20642;-34
2023/10/02 00:11:35;;;;;;;6.82;3.20;;;10.80;99.90;;;;;;5060869;28;20075;-36
2023/10/02 00:14:25;;;;;;;6.73;2.93;;;10.80;99.90;;;;;;5061709;28;20024;-39
2023/10/02 00:16:59;;;;;;;8.45;3.10;;;10.80;99.90;;;;;;5059545;28;20043;-39
2023/10/02 00:19:43;;;;;;;7.30;3.10;;;10.80;99.90;;;;;;5059419;28;20067;-37
2023/10/02 00:25:00;;;;;;;7.07;3.47;;;10.70;99.90;;;;;;5063746;28;20141;-32
2023/10/02 00:27:28;;;;;;;5.18;3.13;;;10.60;99.90;;;;;;5058182;28;20131;-31
2023/10/02 00:29:58;;;;;;;7.18;2.97;;;10.60;99.90;;;;;;5058059;28;20025;-32
2023/10/02 00:32:26;;;;;;;5.30;2.78;;;10.60;99.90;;;;;;5057122;28;20029;-32
2023/10/02 00:34:53;;;;;;;6.20;2.65;;;10.60;99.90;;;;;;5061226;28;20039;-32
2023/10/02 00:37:19;;;;;;;5.65;2.83;;;10.50;99.90;;;;;;5061977;28;20040;-32
2023/10/02 00:39:51;;;;;;;5.80;2.88;;;10.50;99.90;;;;;;5066642;28;20024;-33
2023/10/02 00:42:28;;;;;;;4.68;2.92;;;10.50;99.90;;;;;;5059369;28;20045;-33
2023/10/02 00:44:56;;;;;;;5.10;2.75;;;10.50;99.90;;;;;;5062450;28;20096;-31
2023/10/02 00:47:38;;;;;;;4.72;2.35;;;10.50;99.90;;;;;;5059784;28;20299;-34
2023/10/02 00:50:11;;;;;;;5.40;2.83;;;10.50;99.90;;;;;;5058774;28;20059;-33
2023/10/02 00:52:59;;;;;;;5.35;2.70;;;10.50;99.90;;;;;;5058474;28;20823;-31
2023/10/02 00:55:32;;;;;;;4.57;2.92;;;10.50;99.90;;;;;;5060769;28;20165;-34
2023/10/02 00:58:08;;;;;;;7.03;2.95;;;10.50;99.90;;;;;;5059820;28;20037;-32
2023/10/02 01:00:42;;;;;;;5.05;2.95;;;10.50;99.90;;;;;;5060394;28;20028;-33
2023/10/02 01:03:14;;;;;;;7.50;3.03;;;10.50;99.90;;;;;;5058094;28;20036;-32
2023/10/02 01:05:42;;;;;;;6.78;3.90;;;10.50;99.90;;;;;;5057267;28;20043;-32
2023/10/02 01:08:42;;;;;;;7.65;3.47;;;10.50;99.90;;;;;;5051471;28;20090;-32
2023/10/02 01:11:13;;;;;;;5.75;3.70;;;10.50;99.90;;;;;;5064692;28;20025;-32
2023/10/02 01:13:40;;;;;;;8.45;3.88;;;10.50;99.90;;;;;;5062061;28;20028;-30
2023/10/02 01:16:08;;;;;;;6.97;3.25;;;10.50;99.90;;;;;;5065461;28;20033;-30
2023/10/02 01:18:38;;;;;;;5.38;2.75;;;10.40;99.90;;;;;;5057284;28;20036;-33
2023/10/02 01:21:14;;;;;;;5.60;3.03;;;10.20;99.90;;;;;;5059984;28;20418;-30
2023/10/02 01:24:09;;;;;;;7.00;2.88;;;10.10;99.90;;;;;;5063929;28;20039;-33
2023/10/02 01:26:43;;;;;;;4.43;2.28;;;10.00;99.90;;;;;;5062922;28;20033;-32
2023/10/02 01:29:13;;;;;;;4.53;2.50;;;10.10;99.90;;;;;;5057242;28;20032;-31
2023/10/02 01:31:44;;;;;;;5.28;2.53;;;10.10;99.90;;;;;;5061078;28;20665;-33
2023/10/02 01:34:26;;;;;;;4.53;2.67;;;10.10;99.90;;;;;;5063464;28;20079;-35
2023/10/02 01:36:52;;;;;;;4.55;2.65;;;10.10;99.90;;;;;;5061222;28;20137;-32
2023/10/02 01:39:17;;;;;;;6.07;2.90;;;10.10;99.90;;;;;;5060093;28;22164;-35
2023/10/02 01:41:52;;;;;;;6.85;3.50;;;10.20;99.90;;;;;;5061801;28;20561;-32
2023/10/02 01:44:20;;;;;;;6.57;3.40;;;10.10;99.90;;;;;;5057832;28;20115;-31
2023/10/02 01:46:49;;;;;;;7.03;3.67;;;10.20;99.90;;;;;;5056843;28;20063;-32
2023/10/02 01:49:25;;;;;;;5.70;3.40;;;10.10;99.90;;;;;;5060559;28;20482;-32
2023/10/02 01:51:55;;;;;;;6.45;3.28;;;10.10;99.90;;;;;;5057503;28;20025;-33
2023/10/02 01:54:31;;;;;;;8.25;3.58;;;10.10;99.90;;;;;;5059583;28;20038;-34
2023/10/02 01:56:59;;;;;;;6.50;3.38;;;10.00;99.90;;;;;;5059458;28;20500;-33
2023/10/02 01:59:25;;;;;;;5.43;3.15;;;10.00;99.90;;;;;;5062110;28;20417;-32
2023/10/02 02:01:54;;;;;;;6.53;3.40;;;10.00;99.90;;;;;;5059291;28;20032;-34
2023/10/02 02:04:23;;;;;;;7.35;3.17;;;10.00;99.90;;;;;;5067319;28;20500;-32
2023/10/02 02:06:57;;;;;;;3.78;2.72;;;10.00;99.90;;;;;;5059229;28;20032;-32
2023/10/02 02:09:23;;;;;;;4.18;2.50;;;9.90;99.90;;;;;;5062324;28;20070;-31
2023/10/02 02:12:05;;;;;;;5.05;2.80;;;9.90;99.90;;;;;;5060052;28;20028;-33
2023/10/02 02:14:52;;;;;;;4.60;2.70;;;9.90;99.90;;;;;;5061826;28;20328;-32
2023/10/02 02:17:20;;;;;;;4.65;2.58;;;9.70;99.90;;;;;;5059988;28;20068;-32
2023/10/02 02:19:49;;;;;;;5.93;3.22;;;9.50;99.90;;;;;;5059223;28;20021;-31
2023/10/02 02:22:26;;;;;;;5.68;3.13;;;9.50;99.90;;;;;;5060401;28;20040;-32
2023/10/02 02:24:55;;;;;;;5.75;3.00;;;9.50;99.90;;;;;;5061315;28;20041;-40
2023/10/02 02:27:21;;;;;;;8.07;3.60;;;9.50;99.90;;;;;;5058713;28;20033;-33
2023/10/02 02:29:48;;;;;;;5.43;3.33;;;9.50;99.90;;;;;;5062565;28;20033;-41
2023/10/02 02:32:16;;;;;;;6.63;3.22;;;9.60;99.90;;;;;;5090472;28;20117;-35
2023/10/02 02:34:41;;;;;;;5.38;2.95;;;9.60;99.90;;;;;;5058975;28;20034;-30
2023/10/02 02:37:08;;;;;;;9.05;3.65;;;9.60;99.90;;;;;;5063720;28;20040;-30
2023/10/02 02:39:37;;;;;;;8.10;3.95;;;9.60;99.90;;;;;;5063543;28;20029;-30
2023/10/02 02:42:09;;;;;;;3.72;2.85;;;9.60;99.90;;;;;;5058868;28;20037;-32
2023/10/02 02:44:47;;;;;;;4.40;3.00;;;9.50;99.90;;;;;;5061279;28;20128;-40
2023/10/02 02:47:15;;;;;;;5.60;2.60;;;9.50;99.90;;;;;;5058228;28;20028;-33
2023/10/02 02:49:50;;;;;;;7.63;3.20;;;9.50;99.90;;;;;;5057591;28;20040;-38
2023/10/02 02:52:24;;;;;;;7.55;3.70;;;9.50;99.90;;;;;;5057913;28;20116;-40
2023/10/02 02:54:58;;;;;;;7.15;3.70;;;9.50;99.90;;;;;;5060190;28;20056;-39
2023/10/02 02:57:29;;;;;;;6.85;3.25;;;9.50;99.90;;;;;;5063604;28;20090;-37
2023/10/02 03:00:29;;;;;;;5.35;2.90;;;9.40;99.90;;;;;;5061185;28;20711;-33
2023/10/02 03:02:56;;;;;;;5.28;2.92;;;9.50;99.90;;;;;;5058099;28;20558;-41
2023/10/02 03:05:24;;;;;;;4.25;2.70;;;9.50;99.90;;;;;;5061490;28;20247;-38
2023/10/02 03:07:54;;;;;;;;;;;9.50;99.90;;;;;;5064431;28;20024;-41
2023/10/02 03:10:23;;;;;;;5.90;3.15;;;9.50;99.90;;;;;;5057389;28;19923;-34
2023/10/02 03:12:48;;;;;;;5.85;3.35;;;9.50;99.90;;;;;;5056664;28;20107;-40
2023/10/02 03:15:45;;;;;;;3.65;2.90;;;9.50;99.90;;;;;;5058243;28;20166;-41
2023/10/02 03:18:23;;;;;;;6.18;2.85;;;9.50;99.90;;;;;;5057334;28;20036;-40
2023/10/02 03:20:50;;;;;;;5.40;2.85;;;9.50;99.90;;;;;;5059881;28;20025;-39
2023/10/02 03:23:18;;;;;;;7.05;2.70;;;9.50;99.90;;;;;;5064294;28;20040;-37
2023/10/02 03:25:47;;;;;;;4.50;3.17;;;9.40;99.90;;;;;;5068593;28;20070;-39
2023/10/02 03:28:16;;;;;;;6.80;3.20;;;9.50;99.90;;;;;;5065249;28;20036;-37
2023/10/02 03:30:47;;;;;;;8.40;3.97;;;9.40;99.90;;;;;;5058017;28;20028;-37
2023/10/02 03:33:20;;;;;;;7.97;3.97;;;9.50;99.90;;;;;;5061527;28;20028;-39
2023/10/02 03:35:58;;;;;;;7.97;3.33;;;9.50;99.90;;;;;;5063007;28;20086;-35
2023/10/02 03:38:32;;;;;;;7.40;3.78;;;9.50;99.90;;;;;;5061914;28;20032;-41
2023/10/02 03:41:03;;;;;;;5.90;3.65;;;9.40;99.90;;;;;;5064251;28;20399;-39
2023/10/02 03:43:34;;;;;;;6.93;3.47;;;9.50;99.90;;;;;;5060991;28;20028;-40
2023/10/02 03:46:06;;;;;;;5.80;3.53;;;9.40;99.90;;;;;;5064352;28;20055;-38
2023/10/02 03:48:36;;;;;;;4.47;2.58;;;9.30;99.90;;;;;;5058651;28;20124;-40
2023/10/02 03:51:07;;;;;;;5.18;2.78;;;9.30;99.90;;;;;;5064801;28;20032;-35
2023/10/02 03:53:33;;;;;;;2.95;2.50;;;9.10;99.90;;;;;;5060024;28;20436;-40
2023/10/02 03:58:54;;;;;;;4.80;3.05;;;9.00;99.90;;;;;;5058622;28;20171;-40
2023/10/02 04:01:32;;;;;;;5.18;2.90;;;9.10;99.90;;;;;;5061697;28;20512;-36
2023/10/02 04:04:19;;;;;;;3.97;3.00;;;9.10;99.90;;;;;;5061338;28;20028;-38
2023/10/02 04:06:47;;;;;;;4.38;3.10;;;9.10;99.90;;;;;;5059537;28;20051;-42
2023/10/02 04:11:43;;;;;;;4.00;3.28;;;9.20;99.90;;;;;;5062367;28;21017;-41
2023/10/02 04:14:18;;;;;;;4.65;2.95;;;9.20;99.90;;;;;;5058837;28;20036;-41
2023/10/02 04:16:48;;;;;;;5.35;3.42;;;9.10;99.90;;;;;;5056311;28;20114;-41
2023/10/02 04:19:23;;;;;;;6.53;3.15;;;9.10;99.90;;;;;;5063772;28;20107;-39
2023/10/02 04:21:52;;;;;;;7.15;3.47;;;9.10;99.90;;;;;;5062658;28;20108;-35
2023/10/02 04:24:23;;;;;;;7.28;3.53;;;9.10;99.90;;;;;;5062424;28;20041;-41
2023/10/02 04:27:14;;;;;;;7.05;3.67;;;9.10;99.90;;;;;;5063317;28;20456;-40
2023/10/02 04:29:48;;;;;;;7.35;3.60;;;9.20;99.90;;;;;;5061928;28;20070;-43
2023/10/02 04:32:19;;;;;;;9.30;4.22;;;9.10;99.90;;;;;;5059000;28;20043;-40
2023/10/02 04:34:50;;;;;;;6.18;3.70;;;9.20;99.90;;;;;;5067603;28;20016;-42
2023/10/02 04:37:19;;;;;;;6.90;3.35;;;9.20;99.90;;;;;;5061545;28;20103;-40
2023/10/02 04:42:25;;;;;;;6.25;2.65;;;9.10;99.90;;;;;;5056335;28;20036;-36
2023/10/02 04:44:56;;;;;;;4.85;2.80;;;9.00;99.90;;;;;;5063294;28;20021;-41
2023/10/02 04:47:23;;;;;;;7.45;3.45;;;9.00;99.90;;;;;;5060767;28;20029;-40
2023/10/02 04:55:24;;;;;;;8.45;4.03;;;8.90;99.90;;;;;;5061005;28;20405;-35
2023/10/02 04:58:02;;;;;;;6.85;3.63;;;8.80;99.90;;;;;;5059219;28;20025;-40
2023/10/02 05:00:32;;;;;;;6.72;3.47;;;8.80;99.90;;;;;;5060136;28;20070;-38
2023/10/02 05:03:18;;;;;;;5.97;3.72;;;8.80;99.90;;;;;;5058732;28;20044;-40
2023/10/02 05:05:51;;;;;;;9.65;3.95;;;8.80;99.90;;;;;;5049128;28;20125;-39
2023/10/02 05:08:21;;;;;;;8.40;4.05;;;8.80;99.90;;;;;;5053526;28;20071;-41
2023/10/02 05:10:56;;;;;;;9.32;3.67;;;8.80;99.90;;;;;;5063526;28;20524;-39
2023/10/02 05:16:07;;;;;;;6.70;3.42;;;8.70;99.90;;;;;;5063140;28;20408;-38
2023/10/02 05:18:33;;;;;;;6.65;3.85;;;8.80;99.90;;;;;;5059277;28;20025;-38
2023/10/02 05:21:04;;;;;;;7.75;3.58;;;8.80;99.90;;;;;;5063692;28;20054;-39
2023/10/02 05:23:30;;;;;;;7.95;3.70;;;8.70;99.90;;;;;;5056328;28;20054;-39
2023/10/02 05:26:00;;;;;;;5.72;3.90;;;8.70;99.90;;;;;;5061718;28;20036;-39
2023/10/02 05:28:42;;;;;;;7.43;3.83;;;8.70;99.90;;;;;;5060439;28;20091;-38
2023/10/02 05:31:12;;;;;;;9.02;3.50;;;8.70;99.90;;;;;;5059427;28;20032;-39
2023/10/02 05:33:38;;;;;;;5.70;3.60;;;8.60;99.90;;;;;;5060491;28;20033;-41
2023/10/02 05:36:08;;;;;;;7.63;3.10;;;8.70;99.90;;;;;;5062625;28;20024;-40
2023/10/02 05:38:34;;;;;;;4.57;2.60;;;8.70;99.90;;;;;;5056448;28;20033;-40
2023/10/02 05:41:03;;;;;;;3.45;2.40;;;8.70;99.90;;;;;;5064310;28;20021;-42
2023/10/02 05:43:44;;;;;;;5.53;2.53;;;8.80;99.90;;;;;;5058816;28;20382;-38
2023/10/02 05:46:16;;;;;;;2.33;2.15;;;8.70;99.90;;;;;;5062115;28;20044;-41
2023/10/02 05:48:43;;;;;;;2.53;1.85;;;8.70;99.90;;;;;;5062167;28;20098;-41
2023/10/02 05:51:09;;;;;;;1.67;1.58;;;8.60;99.90;;;;;;5064996;28;20024;-40
2023/10/02 05:53:37;;;;;;;3.28;2.03;;;8.50;99.90;;;;;;5061199;28;20108;-41
2023/10/02 05:56:12;;;;;;;4.45;1.58;;;8.50;99.90;;;;;;5055330;28;20044;-38
2023/10/02 05:58:41;;;;;;;3.95;1.85;;;8.50;99.90;;;;;;5058856;28;20044;-39
2023/10/02 06:01:23;;;;;;;2.33;1.83;;;8.60;99.90;;;;;;5062272;28;20147;-39
2023/10/02 06:03:56;;;;;;;4.75;2.85;;;8.60;99.90;;;;;;5059976;28;20028;-42
2023/10/02 06:06:23;;;;;;;5.75;2.97;;;8.60;99.90;;;;;;5058415;28;20036;-39
2023/10/02 06:08:55;;;;;;;6.55;3.10;;;8.60;99.90;;;;;;5060492;28;20033;-41
2023/10/02 06:11:25;;;;;;;7.03;3.60;;;8.70;99.90;;;;;;5061347;28;20036;-36
2023/10/02 06:14:12;;;;;;;7.93;3.60;;;8.80;99.90;;;;;;5057788;28;20021;-41
2023/10/02 06:16:42;;;;;;;5.82;3.45;;;8.80;99.90;;;;;;5062817;28;20099;-34
2023/10/02 06:19:13;;;;;;;5.45;3.25;;;8.80;99.90;;;;;;5061252;28;20362;-32
2023/10/02 06:21:46;;;;;;;8.50;4.10;;;8.90;99.90;;;;;;5062353;28;20253;-32
2023/10/02 06:24:15;;;;;;;10.75;3.90;;;9.00;99.90;;;;;;5058602;28;20068;-32
2023/10/02 06:26:53;;;;;;;7.28;3.60;;;9.10;99.90;;;;;;5057413;28;20059;-32
2023/10/02 06:29:25;;;;;;;8.95;4.15;;;9.10;99.90;;;;;;5056538;28;20036;-31
2023/10/02 06:31:58;;;;;;;8.70;3.42;;;9.20;99.90;;;;;;5060624;28;20037;-32
2023/10/02 06:34:25;;;;;;;7.35;4.60;;;9.30;99.90;;;;;;5063729;28;20039;-33
2023/10/02 06:37:02;;;;;;;11.52;4.05;;;9.40;99.90;;;;;;5064021;28;20029;-34
2023/10/02 06:39:29;;;;;;;6.20;4.32;;;9.50;99.90;;;;;;5059911;28;20024;-33
2023/10/02 06:42:03;;;;;;;9.05;4.25;;;9.50;99.90;;;;;;5062999;28;20029;-31
2023/10/02 06:44:35;;;;;;;10.40;4.82;;;9.50;99.90;;;;;;5062989;28;20600;-32
2023/10/02 06:47:04;;;;;;;9.27;4.20;;;9.50;99.90;;;;;;5059038;28;20044;-37
2023/10/02 06:49:30;;;;;;;;;;;9.50;99.90;;;;;;5058054;28;20025;-31
2023/10/02 06:52:11;;;;;;;10.65;5.05;;;9.60;99.90;;;;;;5058484;28;19909;-32
2023/10/02 06:54:42;;;;;;;12.35;5.13;;;9.70;99.90;;;;;;5065460;28;20829;-31
2023/10/02 06:57:13;;;;;;;11.88;5.88;;;9.80;99.90;;;;;;5056427;28;20552;-32
2023/10/02 06:59:40;;;;;;;10.05;5.50;;;9.80;99.90;;;;;;5055366;28;20350;-31
2023/10/02 07:02:07;;;;;;;11.85;5.60;;;9.90;99.90;;;;;;5056523;28;20090;-32
2023/10/02 07:04:35;;;;;;;8.98;5.40;;;10.00;99.90;;;;;;5059076;28;20083;-31
2023/10/02 07:07:04;;;;;;;;;;;10.10;99.90;;;;;;5059961;28;20402;-35
2023/10/02 07:09:37;;;;;;;13.73;5.25;;;10.20;99.90;;;;;;5056612;28;19908;-31
2023/10/02 07:12:09;;;;;;;14.23;5.65;;;10.30;99.90;;;;;;5063545;28;21490;-32
2023/10/02 07:14:39;;;;;;;15.93;6.53;;;10.40;99.90;;;;;;5064702;28;20021;-31
2023/10/02 07:17:17;;;;;;;15.68;6.38;;;10.50;99.90;;;;;;5061533;28;20040;-32
2023/10/02 07:19:50;;;;;;;14.73;6.97;;;10.60;99.90;;;;;;5063639;28;20031;-33
2023/10/02 07:22:23;;;;;;;23.20;7.78;;;10.70;99.90;;;;;;5062484;28;20089;-34
2023/10/02 07:24:52;;;;;;;14.13;6.63;;;10.80;99.90;;;;;;5059689;28;20032;-38
2023/10/02 07:27:28;;;;;;;19.25;7.15;;;10.90;99.90;;;;;;5059506;28;20028;-39
2023/10/02 07:29:57;;;;;;;20.55;8.20;;;11.00;99.90;;;;;;5063410;28;20866;-36
2023/10/02 07:32:29;;;;;;;16.23;6.93;;;11.10;99.90;;;;;;5059399;28;20033;-38
2023/10/02 07:34:55;;;;;;;16.58;7.45;;;11.20;99.90;;;;;;5062691;28;20401;-39
2023/10/02 07:37:24;;;;;;;16.13;7.65;;;11.30;99.90;;;;;;5056531;28;20044;-34
2023/10/02 07:39:56;;;;;;;19.70;7.20;;;11.50;99.90;;;;;;5056028;28;20041;-37
2023/10/02 07:42:29;;;;;;;18.45;7.60;;;11.70;99.90;;;;;;5056539;28;20108;-37
2023/10/02 07:45:11;;;;;;;18.17;7.20;;;11.80;99.90;;;;;;5057975;28;20020;-39
2023/10/02 07:47:55;;;;;;;15.90;8.20;;;11.90;99.90;;;;;;5056049;28;20045;-39
2023/10/02 07:50:33;;;;;;;16.73;8.23;;;12.10;99.90;;;;;;5059225;28;20025;-39
2023/10/02 07:53:01;;;;;;;18.27;8.07;;;12.30;99.90;;;;;;5060344;28;20064;-36
2023/10/02 07:55:27;;;;;;;20.77;8.07;;;12.50;99.90;;;;;;5061758;28;20358;-39
2023/10/02 07:58:00;;;;;;;20.15;7.88;;;12.70;99.90;;;;;;5060816;28;20090;-39
2023/10/02 08:00:38;;;;;;;19.98;8.23;;;12.90;99.90;;;;;;5052303;28;20207;-38
2023/10/02 08:03:31;;;;;;;21.83;9.07;;;13.10;99.90;;;;;;5061008;28;20025;-38
2023/10/02 08:06:20;;;;;;;19.05;8.70;;;13.30;99.90;;;;;;5060749;28;20036;-39
2023/10/02 08:08:47;;;;;;;18.40;7.72;;;13.50;99.90;;;;;;5058520;28;20032;-39
2023/10/02 08:11:12;;;;;;;20.35;8.57;;;13.80;99.90;;;;;;5065267;28;20032;-39
2023/10/02 08:13:48;;;;;;;20.52;8.77;;;14.00;99.90;;;;;;5057542;28;20493;-35
2023/10/02 08:16:17;;;;;;;29.42;9.68;;;14.20;99.90;;;;;;5064027;28;20047;-37
2023/10/02 08:18:59;;;;;;;24.88;10.48;;;14.40;99.90;;;;;;5061226;28;20081;-37
2023/10/02 08:21:35;;;;;;;28.52;10.18;;;14.50;99.90;;;;;;5062586;28;20044;-39
2023/10/02 08:24:05;;;;;;;29.40;11.07;;;14.70;99.90;;;;;;5063039;28;20136;-34
2023/10/02 08:26:38;;;;;;;28.30;10.30;;;14.80;99.90;;;;;;5059625;28;20063;-39
2023/10/02 08:29:06;;;;;;;28.77;10.63;;;15.00;99.90;;;;;;5060852;28;20564;-35
2023/10/02 08:31:32;;;;;;;25.10;10.50;;;15.20;99.90;;;;;;5066332;28;20067;-37
2023/10/02 08:34:05;;;;;;;27.95;10.10;;;15.40;99.90;;;;;;5063950;28;20032;-38
2023/10/02 08:36:32;;;;;;;32.85;11.80;;;15.60;99.90;;;;;;5068194;28;20025;-41
2023/10/02 08:38:59;;;;;;;32.55;11.05;;;15.70;99.90;;;;;;5059186;28;20094;-39
2023/10/02 08:41:28;;;;;;;33.63;11.15;;;15.90;99.90;;;;;;5060136;28;20738;-39
2023/10/02 08:43:54;;;;;;;28.30;9.85;;;16.00;99.90;;;;;;5061660;28;20105;-42
2023/10/02 08:46:22;;;;;;;31.35;10.65;;;16.00;99.90;;;;;;5059209;28;20036;-33
2023/10/02 08:48:55;;;;;;;32.00;10.43;;;16.10;99.90;;;;;;5064895;28;20133;-31
2023/10/02 08:51:33;;;;;;;26.48;9.65;;;16.30;99.90;;;;;;5067147;28;20035;-33
2023/10/02 08:54:00;;;;;;;27.88;9.90;;;16.40;99.90;;;;;;5062358;28;20021;-33
2023/10/02 08:56:40;;;;;;;28.57;9.40;;;16.60;99.90;;;;;;5059778;28;20060;-30
2023/10/02 08:59:35;;;;;;;28.25;10.68;;;16.80;99.90;;;;;;5066997;28;20067;-29
2023/10/02 09:02:15;;;;;;;29.50;9.80;;;17.00;99.90;;;;;;5062508;28;20062;-33
2023/10/02 09:04:52;;;;;;;33.38;11.52;;;17.10;99.90;;;;;;5062419;28;20078;-29
2023/10/02 09:07:44;;;;;;;31.17;11.38;;;17.20;99.90;;;;;;5067395;28;20032;-31
2023/10/02 09:10:24;;;;;;;28.33;11.07;;;17.30;99.90;;;;;;5061930;28;20074;-30
2023/10/02 09:13:18;;;;;;;27.85;10.45;;;17.40;99.90;;;;;;5066089;28;20082;-30
2023/10/02 09:15:45;;;;;;;30.55;10.75;;;17.50;99.90;;;;;;5067455;28;20024;-30
2023/10/02 09:18:32;;;;;;;24.00;10.65;;;17.70;99.90;;;;;;5064392;28;20040;-29
2023/10/02 09:21:13;;;;;;;30.73;11.85;;;17.80;99.90;;;;;;5059040;28;20033;-30
2023/10/02 09:23:49;;;;;;;27.85;9.52;;;18.00;99.90;;;;;;5063641;28;20037;-29
2023/10/02 09:26:23;;;;;;;28.70;11.00;;;18.20;99.90;;;;;;5066106;28;20058;-30
2023/10/02 09:28:58;;;;;;;28.75;11.30;;;18.30;99.90;;;;;;5068652;28;20037;-30
2023/10/02 09:31:34;;;;;;;28.13;11.18;;;18.50;99.90;;;;;;5065371;28;20427;-29
2023/10/02 09:34:16;;;;;;;27.27;11.00;;;18.60;99.90;;;;;;5064404;28;20051;-29
2023/10/02 09:36:52;;;;;;;27.00;10.23;;;18.80;99.90;;;;;;5067358;28;20077;-29
2023/10/02 09:39:36;;;;;;;27.95;10.00;;;18.90;99.90;;;;;;5063937;28;20036;-33
2023/10/02 09:42:06;;;;;;;28.58;10.52;;;19.00;99.90;;;;;;5060831;28;20035;-33
2023/10/02 09:44:45;;;;;;;28.48;11.18;;;19.20;99.90;;;;;;5061287;28;20646;-30
2023/10/02 09:47:20;;;;;;;32.13;11.30;;;19.50;99.90;;;;;;5058978;28;20127;-30
2023/10/02 09:50:10;;;;;;;29.63;11.15;;;19.60;99.90;;;;;;5067794;28;20637;-30
2023/10/02 09:52:47;;;;;;;27.83;10.80;;;19.70;99.90;;;;;;5056785;28;20032;-30
2023/10/02 09:55:23;;;;;;;30.15;9.98;;;19.90;99.90;;;;;;5067065;28;20123;-30
2023/10/02 09:57:53;;;;;;;28.98;10.48;;;20.00;99.90;;;;;;5065808;28;20048;-32
2023/10/02 10:00:34;;;;;;;29.13;11.60;;;20.10;99.90;;;;;;5066816;28;20090;-33
2023/10/02 10:03:22;;;;;;;25.60;10.20;;;20.00;99.90;;;;;;5063069;28;20045;-30
2023/10/02 10:06:27;;;;;;;26.83;10.70;;;20.20;99.90;;;;;;5065234;28;20032;-30
2023/10/02 10:11:43;;;;;;;25.23;10.57;;;20.30;99.90;;;;;;5058930;28;20036;-34
2023/10/02 10:14:37;;;;;;;27.02;10.18;;;20.40;99.90;;;;;;5057788;28;20112;-32
2023/10/02 10:17:13;;;;;;;25.63;9.55;;;20.50;99.90;;;;;;5057431;28;20741;-34
2023/10/02 10:20:09;;;;;;;24.67;10.27;;;20.70;99.90;;;;;;5060025;28;20440;-32
2023/10/02 10:22:36;;;;;;;27.48;10.60;;;20.60;99.90;;;;;;5051288;28;20046;-36
2023/10/02 10:27:40;;;;;;;28.33;10.82;;;20.70;99.90;;;;;;5058008;28;20900;-32
2023/10/02 10:30:28;;;;;;;24.83;9.50;;;20.90;99.90;;;;;;5064122;28;20043;-33
2023/10/02 10:35:41;;;;;;;22.83;9.27;;;21.00;99.90;;;;;;5063343;28;19912;-32
2023/10/02 10:38:23;;;;;;;28.85;10.75;;;21.00;99.90;;;;;;5057854;28;20040;-33
2023/10/02 10:40:55;;;;;;;23.33;9.23;;;21.20;99.90;;;;;;5063756;28;20842;-32
2023/10/02 10:43:43;;;;;;;24.85;10.00;;;21.30;99.90;;;;;;5060506;28;20040;-32
2023/10/02 10:46:13;;;;;;;25.20;10.20;;;21.50;99.90;;;;;;5058561;28;20083;-32
2023/10/02 10:48:45;;;;;;;27.80;10.07;;;21.60;99.90;;;;;;5055498;28;20040;-32
2023/10/02 10:51:27;;;;;;;25.77;9.88;;;21.70;99.90;;;;;;5062320;28;20036;-31
2023/10/02 10:54:09;;;;;;;28.02;10.23;;;21.70;99.90;;;;;;5055845;28;20025;-32
2023/10/02 10:56:43;;;;;;;29.45;12.00;;;21.70;99.90;;;;;;5061331;28;20738;-41
2023/10/02 10:59:12;;;;;;;30.13;10.15;;;21.70;99.90;;;;;;5060105;28;20746;-38
2023/10/02 11:04:53;;;;;;;25.77;9.93;;;21.80;99.90;;;;;;5061144;28;20401;-40
2023/10/02 11:07:25;;;;;;;26.33;11.07;;;22.00;99.90;;;;;;5060295;28;20035;-38
2023/10/02 11:10:15;;;;;;;28.23;10.40;;;22.10;99.90;;;;;;5062874;28;20025;-40
2023/10/02 11:12:54;;;;;;;23.15;9.35;;;21.90;99.90;;;;;;5056021;28;20028;-36
2023/10/02 11:18:23;;;;;;;26.02;9.60;;;22.00;99.90;;;;;;5057379;28;20125;-39
2023/10/02 11:20:50;;;;;;;27.00;9.90;;;22.00;99.90;;;;;;5062990;28;20032;-38
2023/10/02 11:26:13;;;;;;;25.80;10.63;;;22.10;99.90;;;;;;5060972;28;20378;-39
2023/10/02 11:28:41;;;;;;;20.98;9.57;;;22.10;99.90;;;;;;5058971;28;20784;-31
2023/10/02 11:31:35;;;;;;;25.05;9.95;;;22.10;99.90;;;;;;5056345;28;20544;-32
2023/10/02 11:34:07;;;;;;;24.95;10.23;;;22.20;99.90;;;;;;5056312;28;20040;-32
2023/10/02 11:36:35;;;;;;;25.85;9.90;;;22.30;99.90;;;;;;5057448;28;20024;-36
2023/10/02 11:39:50;;;;;;;27.95;11.57;;;22.40;99.90;;;;;;5063844;28;20090;-35
2023/10/02 11:41:54;;;;;;;26.00;9.85;;;22.50;99.90;;;;;;5057261;28;20037;-40
2023/10/02 11:44:20;;;;;;;25.65;9.82;;;22.50;99.90;;;;;;5065142;28;20029;-37
2023/10/02 11:46:48;;;;;;;27.35;9.98;;;22.40;99.90;;;;;;5064452;28;20549;-40
2023/10/02 11:49:14;;;;;;;27.77;10.30;;;22.30;99.90;;;;;;5063727;28;20436;-40
2023/10/02 11:51:40;;;;;;;25.95;10.98;;;22.30;99.90;;;;;;5065605;28;20117;-40
2023/10/02 11:54:09;;;;;;;28.80;10.38;;;22.40;99.90;;;;;;5062644;28;20041;-40
2023/10/02 11:56:35;;;;;;;24.50;9.25;;;22.40;99.90;;;;;;5065135;28;20090;-39
2023/10/02 11:59:02;;;;;;;22.33;9.50;;;22.40;99.90;;;;;;5063384;28;20093;-38
2023/10/02 12:01:28;;;;;;;23.87;9.83;;;22.50;99.90;;;;;;5063810;28;20059;-40
2023/10/02 12:03:57;;;;;;;21.35;9.27;;;22.40;99.90;;;;;;5058884;28;20051;-40
2023/10/02 12:06:27;;;;;;;24.48;10.25;;;22.40;99.90;;;;;;5063550;28;20032;-36
2023/10/02 12:08:56;;;;;;;25.00;9.52;;;22.50;99.90;;;;;;5061854;28;20445;-38
2023/10/02 12:11:24;;;;;;;24.33;10.70;;;22.70;99.90;;;;;;5064359;28;20208;-38
2023/10/02 12:13:50;;;;;;;25.90;11.00;;;22.70;99.90;;;;;;5062597;28;20032;-39
2023/10/02 12:16:17;;;;;;;25.08;9.73;;;22.70;99.90;;;;;;5066945;28;20036;-39
2023/10/02 12:18:42;;;;;;;26.08;10.20;;;22.70;99.90;;;;;;5060883;28;20037;-39
2023/10/02 12:21:10;;;;;;;28.23;10.25;;;22.60;99.90;;;;;;5063707;28;20425;-37
2023/10/02 12:23:40;;;;;;;23.75;9.73;;;22.70;99.90;;;;;;5059684;28;20028;-39
2023/10/02 12:26:12;;;;;;;24.02;10.50;;;22.70;99.90;;;;;;5061180;28;20124;-38
2023/10/02 12:28:37;;;;;;;23.13;10.40;;;22.80;99.90;;;;;;5057958;28;20252;-38
2023/10/02 12:31:16;;;;;;;25.70;10.30;;;22.90;99.90;;;;;;5064432;28;20032;-36
2023/10/02 12:33:46;;;;;;;24.45;10.35;;;23.00;99.90;;;;;;5059716;28;20462;-37
2023/10/02 12:36:17;;;;;;;24.58;10.00;;;23.00;99.90;;;;;;5058936;28;20120;-36
2023/10/02 12:38:44;;;;;;;27.02;10.48;;;23.10;99.90;;;;;;5060304;28;20021;-39
2023/10/02 12:41:23;;;;;;;25.53;10.30;;;23.10;99.90;;;;;;5060896;28;20121;-38
2023/10/02 12:43:58;;;;;;;31.10;11.35;;;23.20;99.90;;;;;;5057144;28;20730;-39
2023/10/02 12:46:28;;;;;;;29.35;10.98;;;23.20;99.90;;;;;;5054628;28;20047;-35
2023/10/02 12:48:55;;;;;;;26.30;10.93;;;23.20;99.90;;;;;;5060844;28;20033;-32
2023/10/02 12:51:22;;;;;;;26.45;10.70;;;23.30;99.90;;;;;;5062131;28;20104;-33
2023/10/02 12:53:49;;;;;;;27.65;10.77;;;23.30;99.90;;;;;;5064090;28;20033;-31
2023/10/02 12:56:18;;;;;;;28.10;11.82;;;23.40;99.90;;;;;;5061515;28;20082;-30
2023/10/02 12:58:44;;;;;;;26.85;10.13;;;23.50;99.90;;;;;;5058951;28;20409;-32
2023/10/02 13:01:13;;;;;;;25.75;10.77;;;23.50;99.90;;;;;;5058959;28;20037;-32
2023/10/02 13:03:39;;;;;;;27.95;10.70;;;23.60;99.90;;;;;;5062533;28;20039;-32
2023/10/02 13:06:05;;;;;;;23.30;10.93;;;23.50;99.90;;;;;;5065844;28;20455;-31
2023/10/02 13:08:32;;;;;;;26.25;10.57;;;23.40;99.90;;;;;;5060966;28;20059;-39
2023/10/02 13:10:58;;;;;;;25.67;10.40;;;23.30;99.90;;;;;;5059611;28;20486;-39
2023/10/02 13:13:24;;;;;;;26.33;11.52;;;23.30;99.90;;;;;;5064492;28;20035;-37
2023/10/02 13:15:50;;;;;;;28.25;11.75;;;23.20;99.90;;;;;;5063220;28;20445;-37
2023/10/02 13:18:17;;;;;;;29.98;11.15;;;23.30;99.90;;;;;;5055746;28;20479;-37
2023/10/02 13:20:47;;;;;;;26.52;11.38;;;23.30;99.90;;;;;;5060627;28;20381;-39
2023/10/02 13:23:12;;;;;;;26.98;10.68;;;23.50;99.90;;;;;;5054546;28;20040;-41
2023/10/02 13:25:39;;;;;;;27.30;11.35;;;23.60;99.90;;;;;;5062374;28;20037;-38
2023/10/02 13:28:05;;;;;;;28.63;11.88;;;23.70;99.90;;;;;;5059770;28;20059;-41
2023/10/02 13:30:31;;;;;;;29.08;11.15;;;23.80;99.90;;;;;;5057130;28;20025;-40
2023/10/02 13:32:57;;;;;;;26.73;11.25;;;23.90;99.90;;;;;;5056384;28;20024;-37
2023/10/02 13:35:23;;;;;;;26.48;11.45;;;24.00;99.90;;;;;;5059262;28;20063;-37
2023/10/02 13:37:50;;;;;;;24.55;10.85;;;24.10;99.90;;;;;;5057963;28;20066;-39
2023/10/02 13:40:25;;;;;;;28.10;11.07;;;24.20;99.90;;;;;;5061785;28;20040;-39
2023/10/02 13:42:52;;;;;;;29.83;11.50;;;24.20;99.90;;;;;;5059749;28;20040;-41
2023/10/02 13:45:21;;;;;;;30.35;11.63;;;24.20;99.90;;;;;;5061697;28;20398;-38
2023/10/02 13:47:48;;;;;;;25.95;10.60;;;24.10;99.90;;;;;;5056503;28;20021;-41
2023/10/02 13:50:14;;;;;;;29.00;12.23;;;24.10;99.90;;;;;;5055153;28;20016;-41